Groomtown, North Carolina
Current Conditions -  °F | °C
As of 8:54 PM on Friday 24 Oct 2014 (Local Time) from KGSO Reporting Station
Broken Clouds Broken Clouds  
Wind Chill: 56°   Ceiling: 25000
Heat Index: 56°   Visibility: 10mi
Dew Point: 41°   Wind: 0mph
Humidity: 57%   Direction: NA
Pressure: 29.99"   Gusts: NA
Location:  36.011°N, 79.8751°W
Report Text: KGSO 250054Z 00000KT 10SM SCT160 BKN250 13/05 A2999 RMK AO2 SLP153 T01330050
Loading
Personal Weather Stations






























Interactive Weather Map
Tropical Storm Tracking
New forecast layout! Learn more

10-Day Weather Forecast

Advertisements
Track Severe Weather on mobile